sensor_id;sensor_type;location;lat;lon;timestamp;temperature;humidity
15926;DHT22;8062;53.882;10.642;2023-05-19T00:00:33;4.00;99.90
15926;DHT22;8062;53.882;10.642;2023-05-19T00:01:55;4.00;99.90
15926;DHT22;8062;53.882;10.642;2023-05-19T00:03:15;4.00;99.90
15926;DHT22;8062;53.882;10.642;2023-05-19T00:04:35;4.00;99.90
15926;DHT22;8062;53.882;10.642;2023-05-19T00:05:56;4.10;99.90
15926;DHT22;8062;53.882;10.642;2023-05-19T00:07:17;4.10;99.90
15926;DHT22;8062;53.882;10.642;2023-05-19T00:08:40;4.10;99.90
15926;DHT22;8062;53.882;10.642;2023-05-19T00:10:00;4.10;99.90
15926;DHT22;8062;53.882;10.642;2023-05-19T00:11:20;4.10;99.90
15926;DHT22;8062;53.882;10.642;2023-05-19T00:12:42;4.10;99.90
15926;DHT22;8062;53.882;10.642;2023-05-19T00:14:04;4.10;99.90
15926;DHT22;8062;53.882;10.642;2023-05-19T00:15:24;4.10;99.90
15926;DHT22;8062;53.882;10.642;2023-05-19T00:16:44;4.10;99.90
15926;DHT22;8062;53.882;10.642;2023-05-19T00:18:03;4.10;99.90
15926;DHT22;8062;53.882;10.642;2023-05-19T00:19:24;4.10;99.90
15926;DHT22;8062;53.882;10.642;2023-05-19T00:20:43;4.10;99.90
15926;DHT22;8062;53.882;10.642;2023-05-19T00:22:03;4.10;99.90
15926;DHT22;8062;53.882;10.642;2023-05-19T00:23:22;4.10;99.90
15926;DHT22;8062;53.882;10.642;2023-05-19T00:24:41;4.10;99.90
15926;DHT22;8062;53.882;10.642;2023-05-19T00:26:01;4.10;99.90
15926;DHT22;8062;53.882;10.642;2023-05-19T00:27:20;4.10;99.90
15926;DHT22;8062;53.882;10.642;2023-05-19T00:28:40;4.10;99.90
15926;DHT22;8062;53.882;10.642;2023-05-19T00:29:59;4.10;99.90
15926;DHT22;8062;53.882;10.642;2023-05-19T00:31:19;4.10;99.90
15926;DHT22;8062;53.882;10.642;2023-05-19T00:32:39;4.10;99.90
15926;DHT22;8062;53.882;10.642;2023-05-19T00:33:58;4.10;99.90
15926;DHT22;8062;53.882;10.642;2023-05-19T00:35:19;4.00;99.90
15926;DHT22;8062;53.882;10.642;2023-05-19T00:36:38;4.00;99.90
15926;DHT22;8062;53.882;10.642;2023-05-19T00:37:58;4.00;99.90
15926;DHT22;8062;53.882;10.642;2023-05-19T00:39:17;4.00;99.90
15926;DHT22;8062;53.882;10.642;2023-05-19T00:40:37;4.10;99.90
15926;DHT22;8062;53.882;10.642;2023-05-19T00:41:56;4.00;99.90
15926;DHT22;8062;53.882;10.642;2023-05-19T00:43:16;4.00;99.90
15926;DHT22;8062;53.882;10.642;2023-05-19T00:44:39;4.00;99.90
15926;DHT22;8062;53.882;10.642;2023-05-19T00:45:59;4.10;99.90
15926;DHT22;8062;53.882;10.642;2023-05-19T00:47:19;4.10;99.90
15926;DHT22;8062;53.882;10.642;2023-05-19T00:48:38;4.10;99.90
15926;DHT22;8062;53.882;10.642;2023-05-19T00:49:58;4.10;99.90
15926;DHT22;8062;53.882;10.642;2023-05-19T00:51:17;4.10;99.90
15926;DHT22;8062;53.882;10.642;2023-05-19T00:52:37;4.10;99.90
15926;DHT22;8062;53.882;10.642;2023-05-19T00:53:57;4.10;99.90
15926;DHT22;8062;53.882;10.642;2023-05-19T00:55:17;4.00;99.90
15926;DHT22;8062;53.882;10.642;2023-05-19T00:56:37;4.10;99.90
15926;DHT22;8062;53.882;10.642;2023-05-19T00:57:57;4.10;99.90
15926;DHT22;8062;53.882;10.642;2023-05-19T00:59:17;4.10;99.90
15926;DHT22;8062;53.882;10.642;2023-05-19T01:00:36;4.10;99.90
15926;DHT22;8062;53.882;10.642;2023-05-19T01:01:57;4.10;99.90
15926;DHT22;8062;53.882;10.642;2023-05-19T01:03:16;4.10;99.90
15926;DHT22;8062;53.882;10.642;2023-05-19T01:04:39;4.10;99.90
15926;DHT22;8062;53.882;10.642;2023-05-19T01:06:00;4.10;99.90
15926;DHT22;8062;53.882;10.642;2023-05-19T01:07:23;4.10;99.90
15926;DHT22;8062;53.882;10.642;2023-05-19T01:08:43;4.10;99.90
15926;DHT22;8062;53.882;10.642;2023-05-19T01:10:03;4.10;99.90
15926;DHT22;8062;53.882;10.642;2023-05-19T01:11:23;4.10;99.90
15926;DHT22;8062;53.882;10.642;2023-05-19T01:12:43;4.20;99.90
15926;DHT22;8062;53.882;10.642;2023-05-19T01:14:02;4.10;99.90
15926;DHT22;8062;53.882;10.642;2023-05-19T01:15:24;4.10;99.90
15926;DHT22;8062;53.882;10.642;2023-05-19T01:17:05;4.10;99.90
15926;DHT22;8062;53.882;10.642;2023-05-19T01:18:43;4.10;99.90
15926;DHT22;8062;53.882;10.642;2023-05-19T01:20:26;4.10;99.90
15926;DHT22;8062;53.882;10.642;2023-05-19T01:22:19;4.10;99.90
15926;DHT22;8062;53.882;10.642;2023-05-19T01:26:34;4.20;99.90
15926;DHT22;8062;53.882;10.642;2023-05-19T01:30:11;4.30;99.90
15926;DHT22;8062;53.882;10.642;2023-05-19T01:31:35;4.30;99.90
15926;DHT22;8062;53.882;10.642;2023-05-19T01:32:59;4.30;99.90
15926;DHT22;8062;53.882;10.642;2023-05-19T01:34:20;4.30;99.90
15926;DHT22;8062;53.882;10.642;2023-05-19T01:35:42;4.30;99.90
15926;DHT22;8062;53.882;10.642;2023-05-19T01:37:02;4.20;99.90
15926;DHT22;8062;53.882;10.642;2023-05-19T01:38:23;4.20;99.90
15926;DHT22;8062;53.882;10.642;2023-05-19T01:39:43;4.20;99.90
15926;DHT22;8062;53.882;10.642;2023-05-19T01:41:05;4.10;99.90
15926;DHT22;8062;53.882;10.642;2023-05-19T01:42:28;4.20;99.90
15926;DHT22;8062;53.882;10.642;2023-05-19T01:43:48;4.20;99.90
15926;DHT22;8062;53.882;10.642;2023-05-19T01:45:09;4.20;99.90
15926;DHT22;8062;53.882;10.642;2023-05-19T01:46:28;4.20;99.90
15926;DHT22;8062;53.882;10.642;2023-05-19T01:47:53;4.20;99.90
15926;DHT22;8062;53.882;10.642;2023-05-19T01:49:13;4.20;99.90
15926;DHT22;8062;53.882;10.642;2023-05-19T01:50:32;4.20;99.90
15926;DHT22;8062;53.882;10.642;2023-05-19T01:51:52;4.20;99.90
15926;DHT22;8062;53.882;10.642;2023-05-19T01:53:11;4.20;99.90
15926;DHT22;8062;53.882;10.642;2023-05-19T01:54:31;4.20;99.90
15926;DHT22;8062;53.882;10.642;2023-05-19T01:55:53;4.10;99.90
15926;DHT22;8062;53.882;10.642;2023-05-19T01:57:34;4.10;99.90
15926;DHT22;8062;53.882;10.642;2023-05-19T01:59:02;4.10;99.90
15926;DHT22;8062;53.882;10.642;2023-05-19T02:00:52;4.10;99.90
15926;DHT22;8062;53.882;10.642;2023-05-19T02:02:34;4.10;99.90
15926;DHT22;8062;53.882;10.642;2023-05-19T02:04:23;4.10;99.90
15926;DHT22;8062;53.882;10.642;2023-05-19T02:06:01;4.10;99.90
15926;DHT22;8062;53.882;10.642;2023-05-19T02:07:25;4.10;99.90
15926;DHT22;8062;53.882;10.642;2023-05-19T02:10:50;4.20;99.90
15926;DHT22;8062;53.882;10.642;2023-05-19T02:12:22;4.20;99.90
15926;DHT22;8062;53.882;10.642;2023-05-19T02:13:43;4.20;99.90
15926;DHT22;8062;53.882;10.642;2023-05-19T02:15:13;4.20;99.90
15926;DHT22;8062;53.882;10.642;2023-05-19T02:16:35;4.20;99.90
15926;DHT22;8062;53.882;10.642;2023-05-19T02:17:56;4.20;99.90
15926;DHT22;8062;53.882;10.642;2023-05-19T02:19:26;4.20;99.90
15926;DHT22;8062;53.882;10.642;2023-05-19T02:20:47;4.20;99.90
15926;DHT22;8062;53.882;10.642;2023-05-19T02:22:07;4.20;99.90
15926;DHT22;8062;53.882;10.642;2023-05-19T02:23:27;4.20;99.90
15926;DHT22;8062;53.882;10.642;2023-05-19T02:24:46;4.20;99.90
15926;DHT22;8062;53.882;10.642;2023-05-19T02:26:09;4.20;99.90
15926;DHT22;8062;53.882;10.642;2023-05-19T02:27:29;4.20;99.90
15926;DHT22;8062;53.882;10.642;2023-05-19T02:28:49;4.20;99.90
15926;DHT22;8062;53.882;10.642;2023-05-19T02:30:09;4.10;99.90
15926;DHT22;8062;53.882;10.642;2023-05-19T02:31:29;4.10;99.90
15926;DHT22;8062;53.882;10.642;2023-05-19T02:32:49;4.10;99.90
15926;DHT22;8062;53.882;10.642;2023-05-19T02:34:09;4.10;99.90
15926;DHT22;8062;53.882;10.642;2023-05-19T02:35:29;4.10;99.90
15926;DHT22;8062;53.882;10.642;2023-05-19T02:36:48;4.10;99.90
15926;DHT22;8062;53.882;10.642;2023-05-19T02:38:08;4.10;99.90
15926;DHT22;8062;53.882;10.642;2023-05-19T02:39:28;4.10;99.90
15926;DHT22;8062;53.882;10.642;2023-05-19T02:40:53;4.10;99.90
15926;DHT22;8062;53.882;10.642;2023-05-19T02:42:12;4.10;99.90
15926;DHT22;8062;53.882;10.642;2023-05-19T02:43:35;4.10;99.90
15926;DHT22;8062;53.882;10.642;2023-05-19T02:44:55;4.10;99.90
15926;DHT22;8062;53.882;10.642;2023-05-19T02:46:15;4.10;99.90
15926;DHT22;8062;53.882;10.642;2023-05-19T02:47:34;4.10;99.90
15926;DHT22;8062;53.882;10.642;2023-05-19T02:48:54;4.10;99.90
15926;DHT22;8062;53.882;10.642;2023-05-19T02:50:14;4.10;99.90
15926;DHT22;8062;53.882;10.642;2023-05-19T02:51:34;4.10;99.90
15926;DHT22;8062;53.882;10.642;2023-05-19T02:52:53;4.10;99.90
15926;DHT22;8062;53.882;10.642;2023-05-19T02:54:13;4.10;99.90
15926;DHT22;8062;53.882;10.642;2023-05-19T02:55:32;4.10;99.90
15926;DHT22;8062;53.882;10.642;2023-05-19T02:56:52;4.10;99.90
15926;DHT22;8062;53.882;10.642;2023-05-19T02:58:12;4.10;99.90
15926;DHT22;8062;53.882;10.642;2023-05-19T02:59:31;4.10;99.90
15926;DHT22;8062;53.882;10.642;2023-05-19T03:00:51;4.10;99.90
15926;DHT22;8062;53.882;10.642;2023-05-19T03:02:11;4.10;99.90
15926;DHT22;8062;53.882;10.642;2023-05-19T03:03:30;4.10;99.90
15926;DHT22;8062;53.882;10.642;2023-05-19T03:04:50;4.10;99.90
15926;DHT22;8062;53.882;10.642;2023-05-19T03:06:11;4.20;99.90
15926;DHT22;8062;53.882;10.642;2023-05-19T03:07:31;4.20;99.90
15926;DHT22;8062;53.882;10.642;2023-05-19T03:08:51;4.20;99.90
15926;DHT22;8062;53.882;10.642;2023-05-19T03:10:11;4.20;99.90
15926;DHT22;8062;53.882;10.642;2023-05-19T03:11:31;4.20;99.90
15926;DHT22;8062;53.882;10.642;2023-05-19T03:12:50;4.20;99.90
15926;DHT22;8062;53.882;10.642;2023-05-19T03:14:10;4.20;99.90
15926;DHT22;8062;53.882;10.642;2023-05-19T03:15:31;4.20;99.90
15926;DHT22;8062;53.882;10.642;2023-05-19T03:16:52;4.20;99.90
15926;DHT22;8062;53.882;10.642;2023-05-19T03:18:12;4.30;99.90
15926;DHT22;8062;53.882;10.642;2023-05-19T03:19:31;4.30;99.90
15926;DHT22;8062;53.882;10.642;2023-05-19T03:20:50;4.30;99.90
15926;DHT22;8062;53.882;10.642;2023-05-19T03:22:12;4.30;99.90
15926;DHT22;8062;53.882;10.642;2023-05-19T03:23:31;4.30;99.90
15926;DHT22;8062;53.882;10.642;2023-05-19T03:24:51;4.30;99.90
15926;DHT22;8062;53.882;10.642;2023-05-19T03:26:13;4.40;99.90
15926;DHT22;8062;53.882;10.642;2023-05-19T03:27:32;4.40;99.90
15926;DHT22;8062;53.882;10.642;2023-05-19T03:28:52;4.40;99.90
15926;DHT22;8062;53.882;10.642;2023-05-19T03:30:13;4.40;99.90
15926;DHT22;8062;53.882;10.642;2023-05-19T03:31:45;4.50;99.90
15926;DHT22;8062;53.882;10.642;2023-05-19T03:33:07;4.50;99.90
15926;DHT22;8062;53.882;10.642;2023-05-19T03:34:26;4.50;99.90
15926;DHT22;8062;53.882;10.642;2023-05-19T03:35:46;4.50;99.90
15926;DHT22;8062;53.882;10.642;2023-05-19T03:37:07;4.50;99.90
15926;DHT22;8062;53.882;10.642;2023-05-19T03:38:30;4.60;99.90
15926;DHT22;8062;53.882;10.642;2023-05-19T03:39:50;4.50;99.90
15926;DHT22;8062;53.882;10.642;2023-05-19T03:41:10;4.50;99.90
15926;DHT22;8062;53.882;10.642;2023-05-19T03:42:30;4.50;99.90
15926;DHT22;8062;53.882;10.642;2023-05-19T03:43:50;4.60;99.90
15926;DHT22;8062;53.882;10.642;2023-05-19T03:45:09;4.60;99.90
15926;DHT22;8062;53.882;10.642;2023-05-19T03:46:29;4.60;99.90
15926;DHT22;8062;53.882;10.642;2023-05-19T03:48:14;4.60;99.90
15926;DHT22;8062;53.882;10.642;2023-05-19T03:50:00;4.60;99.90
15926;DHT22;8062;53.882;10.642;2023-05-19T03:51:39;4.70;99.90
15926;DHT22;8062;53.882;10.642;2023-05-19T03:53:11;4.70;99.90
15926;DHT22;8062;53.882;10.642;2023-05-19T03:54:33;4.80;99.90
15926;DHT22;8062;53.882;10.642;2023-05-19T03:55:52;4.80;99.90
15926;DHT22;8062;53.882;10.642;2023-05-19T03:57:13;4.80;99.90
15926;DHT22;8062;53.882;10.642;2023-05-19T03:58:33;4.80;99.90
15926;DHT22;8062;53.882;10.642;2023-05-19T03:59:52;4.90;99.90
15926;DHT22;8062;53.882;10.642;2023-05-19T04:01:13;4.90;99.90
15926;DHT22;8062;53.882;10.642;2023-05-19T04:02:32;4.90;99.90
15926;DHT22;8062;53.882;10.642;2023-05-19T04:03:52;5.00;99.90
15926;DHT22;8062;53.882;10.642;2023-05-19T04:05:11;5.10;99.90
15926;DHT22;8062;53.882;10.642;2023-05-19T04:06:31;5.20;99.90
15926;DHT22;8062;53.882;10.642;2023-05-19T04:07:52;5.30;99.90
15926;DHT22;8062;53.882;10.642;2023-05-19T04:09:12;5.30;99.90
15926;DHT22;8062;53.882;10.642;2023-05-19T04:10:32;5.40;99.90
15926;DHT22;8062;53.882;10.642;2023-05-19T04:11:52;5.50;99.90
15926;DHT22;8062;53.882;10.642;2023-05-19T04:13:12;5.60;99.90
15926;DHT22;8062;53.882;10.642;2023-05-19T04:14:32;5.70;99.90
15926;DHT22;8062;53.882;10.642;2023-05-19T04:15:51;5.80;99.90
15926;DHT22;8062;53.882;10.642;2023-05-19T04:17:11;5.80;99.90
15926;DHT22;8062;53.882;10.642;2023-05-19T04:18:30;5.90;99.90
15926;DHT22;8062;53.882;10.642;2023-05-19T04:19:50;6.10;99.90
15926;DHT22;8062;53.882;10.642;2023-05-19T04:21:10;6.10;99.90
15926;DHT22;8062;53.882;10.642;2023-05-19T04:22:31;6.20;99.90
15926;DHT22;8062;53.882;10.642;2023-05-19T04:23:51;6.40;99.90
15926;DHT22;8062;53.882;10.642;2023-05-19T04:25:11;6.50;99.90
15926;DHT22;8062;53.882;10.642;2023-05-19T04:26:30;6.50;99.90
15926;DHT22;8062;53.882;10.642;2023-05-19T04:27:52;6.60;99.90
15926;DHT22;8062;53.882;10.642;2023-05-19T04:29:12;6.60;99.90
15926;DHT22;8062;53.882;10.642;2023-05-19T04:30:32;6.80;99.90
15926;DHT22;8062;53.882;10.642;2023-05-19T04:31:54;6.80;99.90
15926;DHT22;8062;53.882;10.642;2023-05-19T04:33:14;6.90;99.90
15926;DHT22;8062;53.882;10.642;2023-05-19T04:34:34;7.00;99.90
15926;DHT22;8062;53.882;10.642;2023-05-19T04:35:56;7.00;99.90
15926;DHT22;8062;53.882;10.642;2023-05-19T04:37:16;7.10;99.90
15926;DHT22;8062;53.882;10.642;2023-05-19T04:38:36;7.20;99.90
15926;DHT22;8062;53.882;10.642;2023-05-19T04:39:58;7.30;99.90
15926;DHT22;8062;53.882;10.642;2023-05-19T04:41:20;7.40;99.90
15926;DHT22;8062;53.882;10.642;2023-05-19T04:42:40;7.40;99.90
15926;DHT22;8062;53.882;10.642;2023-05-19T04:44:02;7.50;99.90
15926;DHT22;8062;53.882;10.642;2023-05-19T04:45:22;7.60;99.90
15926;DHT22;8062;53.882;10.642;2023-05-19T04:46:44;7.70;99.90
15926;DHT22;8062;53.882;10.642;2023-05-19T04:48:05;7.70;99.90
15926;DHT22;8062;53.882;10.642;2023-05-19T04:49:24;7.80;99.90
15926;DHT22;8062;53.882;10.642;2023-05-19T04:50:44;7.90;99.90
15926;DHT22;8062;53.882;10.642;2023-05-19T04:52:08;7.90;99.90
15926;DHT22;8062;53.882;10.642;2023-05-19T04:53:31;8.00;99.90
15926;DHT22;8062;53.882;10.642;2023-05-19T04:54:51;8.10;99.90
15926;DHT22;8062;53.882;10.642;2023-05-19T04:56:11;8.20;99.90
15926;DHT22;8062;53.882;10.642;2023-05-19T04:57:33;8.30;99.90
15926;DHT22;8062;53.882;10.642;2023-05-19T04:58:53;8.30;99.90
15926;DHT22;8062;53.882;10.642;2023-05-19T05:00:14;8.30;99.90
15926;DHT22;8062;53.882;10.642;2023-05-19T05:01:45;8.40;99.90
15926;DHT22;8062;53.882;10.642;2023-05-19T05:03:06;8.50;99.90
15926;DHT22;8062;53.882;10.642;2023-05-19T05:04:26;8.60;99.90
15926;DHT22;8062;53.882;10.642;2023-05-19T05:05:46;8.70;99.90
15926;DHT22;8062;53.882;10.642;2023-05-19T05:07:06;8.80;99.90
15926;DHT22;8062;53.882;10.642;2023-05-19T05:08:26;8.80;99.90
15926;DHT22;8062;53.882;10.642;2023-05-19T05:09:47;8.80;99.90
15926;DHT22;8062;53.882;10.642;2023-05-19T05:11:07;8.90;99.90
15926;DHT22;8062;53.882;10.642;2023-05-19T05:12:27;9.00;99.90
15926;DHT22;8062;53.882;10.642;2023-05-19T05:13:48;9.00;99.90
15926;DHT22;8062;53.882;10.642;2023-05-19T05:15:08;9.10;99.90
15926;DHT22;8062;53.882;10.642;2023-05-19T05:16:29;9.10;99.90
15926;DHT22;8062;53.882;10.642;2023-05-19T05:17:52;9.20;99.90
15926;DHT22;8062;53.882;10.642;2023-05-19T05:19:13;9.30;99.90
15926;DHT22;8062;53.882;10.642;2023-05-19T05:20:33;9.40;99.90
15926;DHT22;8062;53.882;10.642;2023-05-19T05:21:53;9.40;99.90
15926;DHT22;8062;53.882;10.642;2023-05-19T05:23:13;9.50;99.90
15926;DHT22;8062;53.882;10.642;2023-05-19T05:24:34;9.60;99.90
15926;DHT22;8062;53.882;10.642;2023-05-19T05:25:56;9.70;99.90
15926;DHT22;8062;53.882;10.642;2023-05-19T05:27:16;9.80;99.90
15926;DHT22;8062;53.882;10.642;2023-05-19T05:28:35;9.80;99.90
15926;DHT22;8062;53.882;10.642;2023-05-19T05:29:55;9.90;99.90
15926;DHT22;8062;53.882;10.642;2023-05-19T05:31:15;9.90;99.90
15926;DHT22;8062;53.882;10.642;2023-05-19T05:32:37;10.00;99.90
15926;DHT22;8062;53.882;10.642;2023-05-19T05:34:02;10.10;99.90
15926;DHT22;8062;53.882;10.642;2023-05-19T05:35:24;10.10;99.90
15926;DHT22;8062;53.882;10.642;2023-05-19T05:36:44;10.20;99.90
15926;DHT22;8062;53.882;10.642;2023-05-19T05:38:03;10.40;99.90
15926;DHT22;8062;53.882;10.642;2023-05-19T05:39:23;10.50;99.90
15926;DHT22;8062;53.882;10.642;2023-05-19T05:40:43;10.60;99.90
15926;DHT22;8062;53.882;10.642;2023-05-19T05:42:03;10.70;99.90
15926;DHT22;8062;53.882;10.642;2023-05-19T05:43:23;10.80;99.90
15926;DHT22;8062;53.882;10.642;2023-05-19T05:44:48;10.90;99.90
15926;DHT22;8062;53.882;10.642;2023-05-19T05:46:08;11.10;99.90
15926;DHT22;8062;53.882;10.642;2023-05-19T05:47:28;11.20;99.90
15926;DHT22;8062;53.882;10.642;2023-05-19T05:48:48;11.20;99.90
15926;DHT22;8062;53.882;10.642;2023-05-19T05:50:09;11.30;99.90
15926;DHT22;8062;53.882;10.642;2023-05-19T05:51:29;11.30;99.90
15926;DHT22;8062;53.882;10.642;2023-05-19T05:52:51;11.30;99.90
15926;DHT22;8062;53.882;10.642;2023-05-19T05:54:12;11.30;99.90
15926;DHT22;8062;53.882;10.642;2023-05-19T05:55:38;11.40;99.90
15926;DHT22;8062;53.882;10.642;2023-05-19T05:56:59;11.50;99.90
15926;DHT22;8062;53.882;10.642;2023-05-19T05:58:18;11.50;99.90
15926;DHT22;8062;53.882;10.642;2023-05-19T05:59:40;11.60;99.90
15926;DHT22;8062;53.882;10.642;2023-05-19T06:00:59;11.60;99.90
15926;DHT22;8062;53.882;10.642;2023-05-19T06:02:21;11.70;99.90
15926;DHT22;8062;53.882;10.642;2023-05-19T06:03:41;11.80;99.90
15926;DHT22;8062;53.882;10.642;2023-05-19T06:05:04;11.90;99.90
15926;DHT22;8062;53.882;10.642;2023-05-19T06:06:25;12.00;99.90
15926;DHT22;8062;53.882;10.642;2023-05-19T06:07:46;12.10;99.90
15926;DHT22;8062;53.882;10.642;2023-05-19T06:09:11;12.20;99.90
15926;DHT22;8062;53.882;10.642;2023-05-19T06:10:31;12.30;99.90
15926;DHT22;8062;53.882;10.642;2023-05-19T06:11:51;12.30;99.90
15926;DHT22;8062;53.882;10.642;2023-05-19T06:13:11;12.40;99.90
15926;DHT22;8062;53.882;10.642;2023-05-19T06:14:34;12.50;99.90
15926;DHT22;8062;53.882;10.642;2023-05-19T06:16:26;12.60;99.90
15926;DHT22;8062;53.882;10.642;2023-05-19T06:17:46;12.50;99.90
15926;DHT22;8062;53.882;10.642;2023-05-19T06:19:06;12.40;99.90
15926;DHT22;8062;53.882;10.642;2023-05-19T06:20:25;12.30;99.90
15926;DHT22;8062;53.882;10.642;2023-05-19T06:21:45;12.20;99.90
15926;DHT22;8062;53.882;10.642;2023-05-19T06:23:04;12.20;99.90
15926;DHT22;8062;53.882;10.642;2023-05-19T06:24:24;12.20;99.90
15926;DHT22;8062;53.882;10.642;2023-05-19T06:25:44;12.20;99.90
15926;DHT22;8062;53.882;10.642;2023-05-19T06:27:04;12.30;99.90
15926;DHT22;8062;53.882;10.642;2023-05-19T06:28:23;12.40;99.90
15926;DHT22;8062;53.882;10.642;2023-05-19T06:29:44;12.60;99.90
15926;DHT22;8062;53.882;10.642;2023-05-19T06:31:06;12.60;99.90
15926;DHT22;8062;53.882;10.642;2023-05-19T06:32:44;12.80;99.90
15926;DHT22;8062;53.882;10.642;2023-05-19T06:34:05;12.80;99.90
15926;DHT22;8062;53.882;10.642;2023-05-19T06:35:25;12.80;99.90
15926;DHT22;8062;53.882;10.642;2023-05-19T06:36:45;12.90;99.90
15926;DHT22;8062;53.882;10.642;2023-05-19T06:38:05;12.80;99.90
15926;DHT22;8062;53.882;10.642;2023-05-19T06:39:25;12.80;99.90
15926;DHT22;8062;53.882;10.642;2023-05-19T06:40:45;12.70;99.90
15926;DHT22;8062;53.882;10.642;2023-05-19T06:42:04;12.60;99.90
15926;DHT22;8062;53.882;10.642;2023-05-19T06:43:47;12.70;99.90
15926;DHT22;8062;53.882;10.642;2023-05-19T06:45:07;12.80;99.90
15926;DHT22;8062;53.882;10.642;2023-05-19T06:46:27;12.90;99.90
15926;DHT22;8062;53.882;10.642;2023-05-19T06:47:49;12.90;99.90
15926;DHT22;8062;53.882;10.642;2023-05-19T06:49:10;13.00;99.90
15926;DHT22;8062;53.882;10.642;2023-05-19T06:50:33;13.00;99.90
15926;DHT22;8062;53.882;10.642;2023-05-19T06:51:53;13.10;99.90
15926;DHT22;8062;53.882;10.642;2023-05-19T06:53:15;13.20;99.90
15926;DHT22;8062;53.882;10.642;2023-05-19T06:54:35;13.20;99.90
15926;DHT22;8062;53.882;10.642;2023-05-19T06:55:55;13.30;99.90
15926;DHT22;8062;53.882;10.642;2023-05-19T06:57:16;13.40;99.90
15926;DHT22;8062;53.882;10.642;2023-05-19T06:58:36;13.50;99.90
15926;DHT22;8062;53.882;10.642;2023-05-19T06:59:58;13.50;99.90
15926;DHT22;8062;53.882;10.642;2023-05-19T07:01:18;13.60;99.90
15926;DHT22;8062;53.882;10.642;2023-05-19T07:02:43;13.50;99.90
15926;DHT22;8062;53.882;10.642;2023-05-19T07:04:03;13.40;99.90
15926;DHT22;8062;53.882;10.642;2023-05-19T07:05:22;13.30;99.90
15926;DHT22;8062;53.882;10.642;2023-05-19T07:06:46;13.30;99.90
15926;DHT22;8062;53.882;10.642;2023-05-19T07:08:05;13.30;99.90
15926;DHT22;8062;53.882;10.642;2023-05-19T07:09:28;13.50;99.90
15926;DHT22;8062;53.882;10.642;2023-05-19T07:10:49;13.60;99.90
15926;DHT22;8062;53.882;10.642;2023-05-19T07:12:10;13.60;99.90
15926;DHT22;8062;53.882;10.642;2023-05-19T07:13:29;13.70;99.90
15926;DHT22;8062;53.882;10.642;2023-05-19T07:14:51;13.70;99.90
15926;DHT22;8062;53.882;10.642;2023-05-19T07:16:10;13.70;99.90
15926;DHT22;8062;53.882;10.642;2023-05-19T07:17:31;13.70;99.90
15926;DHT22;8062;53.882;10.642;2023-05-19T07:18:51;13.60;99.90
15926;DHT22;8062;53.882;10.642;2023-05-19T07:20:11;13.50;99.90
15926;DHT22;8062;53.882;10.642;2023-05-19T07:21:31;13.40;99.90
15926;DHT22;8062;53.882;10.642;2023-05-19T07:22:50;13.40;99.90
15926;DHT22;8062;53.882;10.642;2023-05-19T07:24:10;13.60;99.90
15926;DHT22;8062;53.882;10.642;2023-05-19T07:25:29;13.60;99.90
15926;DHT22;8062;53.882;10.642;2023-05-19T07:26:49;13.70;99.90
15926;DHT22;8062;53.882;10.642;2023-05-19T07:28:09;13.80;99.80
15926;DHT22;8062;53.882;10.642;2023-05-19T07:29:28;13.90;99.50
15926;DHT22;8062;53.882;10.642;2023-05-19T07:30:48;14.10;99.50
15926;DHT22;8062;53.882;10.642;2023-05-19T07:32:08;14.40;99.30
15926;DHT22;8062;53.882;10.642;2023-05-19T07:33:27;14.60;99.00
15926;DHT22;8062;53.882;10.642;2023-05-19T07:34:47;14.90;99.50
15926;DHT22;8062;53.882;10.642;2023-05-19T07:36:06;15.00;98.60
15926;DHT22;8062;53.882;10.642;2023-05-19T07:37:26;15.10;97.90
15926;DHT22;8062;53.882;10.642;2023-05-19T07:38:46;14.90;96.90
15926;DHT22;8062;53.882;10.642;2023-05-19T07:40:05;14.50;96.50
15926;DHT22;8062;53.882;10.642;2023-05-19T07:41:26;14.40;96.70
15926;DHT22;8062;53.882;10.642;2023-05-19T07:42:48;14.30;97.30
15926;DHT22;8062;53.882;10.642;2023-05-19T07:44:07;14.30;97.00
15926;DHT22;8062;53.882;10.642;2023-05-19T07:45:28;14.20;96.80
15926;DHT22;8062;53.882;10.642;2023-05-19T07:46:48;14.10;96.80
15926;DHT22;8062;53.882;10.642;2023-05-19T07:48:07;14.00;97.10
15926;DHT22;8062;53.882;10.642;2023-05-19T07:49:27;14.00;97.30
15926;DHT22;8062;53.882;10.642;2023-05-19T07:50:46;14.10;98.60
15926;DHT22;8062;53.882;10.642;2023-05-19T07:52:06;14.10;97.20
15926;DHT22;8062;53.882;10.642;2023-05-19T07:53:25;14.10;96.80
15926;DHT22;8062;53.882;10.642;2023-05-19T07:54:46;13.90;96.70
15926;DHT22;8062;53.882;10.642;2023-05-19T07:56:05;13.90;98.00
15926;DHT22;8062;53.882;10.642;2023-05-19T07:57:25;14.00;98.20
15926;DHT22;8062;53.882;10.642;2023-05-19T07:58:44;14.10;96.80
15926;DHT22;8062;53.882;10.642;2023-05-19T08:00:04;14.00;96.70
15926;DHT22;8062;53.882;10.642;2023-05-19T08:01:34;14.10;96.80
15926;DHT22;8062;53.882;10.642;2023-05-19T08:02:54;14.10;96.40
15926;DHT22;8062;53.882;10.642;2023-05-19T08:04:15;14.20;96.20
15926;DHT22;8062;53.882;10.642;2023-05-19T08:05:35;14.30;96.20
15926;DHT22;8062;53.882;10.642;2023-05-19T08:06:54;14.30;96.30
15926;DHT22;8062;53.882;10.642;2023-05-19T08:08:14;14.40;95.00
15926;DHT22;8062;53.882;10.642;2023-05-19T08:09:35;14.20;95.40
15926;DHT22;8062;53.882;10.642;2023-05-19T08:10:54;14.10;96.00
15926;DHT22;8062;53.882;10.642;2023-05-19T08:12:14;14.20;95.50
15926;DHT22;8062;53.882;10.642;2023-05-19T08:13:33;14.50;96.20
15926;DHT22;8062;53.882;10.642;2023-05-19T08:14:53;14.60;95.70
15926;DHT22;8062;53.882;10.642;2023-05-19T08:16:12;14.70;95.40
15926;DHT22;8062;53.882;10.642;2023-05-19T08:17:32;14.70;95.70
15926;DHT22;8062;53.882;10.642;2023-05-19T08:18:51;14.90;96.50
15926;DHT22;8062;53.882;10.642;2023-05-19T08:20:11;14.90;95.10
15926;DHT22;8062;53.882;10.642;2023-05-19T08:21:31;15.00;95.60
15926;DHT22;8062;53.882;10.642;2023-05-19T08:22:52;15.20;95.80
15926;DHT22;8062;53.882;10.642;2023-05-19T08:24:12;15.20;94.90
15926;DHT22;8062;53.882;10.642;2023-05-19T08:25:31;15.10;95.40
15926;DHT22;8062;53.882;10.642;2023-05-19T08:26:51;15.10;95.10
15926;DHT22;8062;53.882;10.642;2023-05-19T08:28:10;15.20;95.00
15926;DHT22;8062;53.882;10.642;2023-05-19T08:29:30;15.30;95.00
15926;DHT22;8062;53.882;10.642;2023-05-19T08:30:50;15.30;95.10
15926;DHT22;8062;53.882;10.642;2023-05-19T08:32:10;15.60;94.90
15926;DHT22;8062;53.882;10.642;2023-05-19T08:33:30;15.70;94.30
15926;DHT22;8062;53.882;10.642;2023-05-19T08:34:49;15.80;94.60
15926;DHT22;8062;53.882;10.642;2023-05-19T08:36:09;15.80;94.20
15926;DHT22;8062;53.882;10.642;2023-05-19T08:37:28;16.00;94.30
15926;DHT22;8062;53.882;10.642;2023-05-19T08:38:48;16.00;94.50
15926;DHT22;8062;53.882;10.642;2023-05-19T08:40:12;16.30;94.30
15926;DHT22;8062;53.882;10.642;2023-05-19T08:41:34;16.50;94.00
15926;DHT22;8062;53.882;10.642;2023-05-19T08:42:53;16.30;92.70
15926;DHT22;8062;53.882;10.642;2023-05-19T08:44:13;16.30;93.70
15926;DHT22;8062;53.882;10.642;2023-05-19T08:45:32;16.40;93.30
15926;DHT22;8062;53.882;10.642;2023-05-19T08:47:00;16.50;92.70